sensor_id;sensor_type;location;lat;lon;timestamp;pressure;altitude;pressure_sealevel;temperature;humidity
69247;BME280;56358;56.328;43.992;2023-02-11T00:00:16;100474.47;;;-3.68;75.58
69247;BME280;56358;56.328;43.992;2023-02-11T00:02:16;100477.03;;;-3.65;76.01
69247;BME280;56358;56.328;43.992;2023-02-11T00:04:17;100505.78;;;-3.62;75.94
69247;BME280;56358;56.328;43.992;2023-02-11T00:06:18;100472.69;;;-3.66;75.64
69247;BME280;56358;56.328;43.992;2023-02-11T00:08:18;100459.75;;;-3.74;75.75
69247;BME280;56358;56.328;43.992;2023-02-11T00:10:19;100470.13;;;-3.69;75.70
69247;BME280;56358;56.328;43.992;2023-02-11T00:12:20;100473.44;;;-3.59;75.57
69247;BME280;56358;56.328;43.992;2023-02-11T00:14:20;100476.00;;;-3.58;75.28
69247;BME280;56358;56.328;43.992;2023-02-11T00:16:21;100475.34;;;-3.67;75.42
69247;BME280;56358;56.328;43.992;2023-02-11T00:18:22;100485.78;;;-3.66;75.24
69247;BME280;56358;56.328;43.992;2023-02-11T00:20:23;100464.84;;;-3.67;75.13
69247;BME280;56358;56.328;43.992;2023-02-11T00:22:23;100471.91;;;-3.69;75.13
69247;BME280;56358;56.328;43.992;2023-02-11T00:24:24;100455.28;;;-3.70;74.93
69247;BME280;56358;56.328;43.992;2023-02-11T00:26:27;100471.53;;;-3.53;74.84
69247;BME280;56358;56.328;43.992;2023-02-11T00:28:29;100386.88;;;-3.98;74.76
69247;BME280;56358;56.328;43.992;2023-02-11T00:30:29;100402.38;;;-3.88;74.63
69247;BME280;56358;56.328;43.992;2023-02-11T00:32:30;100429.00;;;-3.65;74.81
69247;BME280;56358;56.328;43.992;2023-02-11T00:34:31;100441.91;;;-3.55;74.32
69247;BME280;56358;56.328;43.992;2023-02-11T00:36:32;100470.53;;;-3.45;74.56
69247;BME280;56358;56.328;43.992;2023-02-11T00:38:33;100453.94;;;-3.46;74.25
69247;BME280;56358;56.328;43.992;2023-02-11T00:40:33;100366.91;;;-4.04;74.09
69247;BME280;56358;56.328;43.992;2023-02-11T00:42:34;100438.28;;;-3.49;73.87
69247;BME280;56358;56.328;43.992;2023-02-11T00:44:35;100428.75;;;-3.53;73.82
69247;BME280;56358;56.328;43.992;2023-02-11T00:46:35;100436.69;;;-3.56;73.74
69247;BME280;56358;56.328;43.992;2023-02-11T00:48:36;100455.59;;;-3.42;73.88
69247;BME280;56358;56.328;43.992;2023-02-11T00:50:36;100449.69;;;-3.51;74.07
69247;BME280;56358;56.328;43.992;2023-02-11T00:52:37;100453.94;;;-3.46;73.95
69247;BME280;56358;56.328;43.992;2023-02-11T00:54:38;100453.91;;;-3.44;74.13
69247;BME280;56358;56.328;43.992;2023-02-11T00:56:39;100448.66;;;-3.43;73.95
69247;BME280;56358;56.328;43.992;2023-02-11T00:58:40;100422.66;;;-3.54;73.84
69247;BME280;56358;56.328;43.992;2023-02-11T01:00:41;100451.19;;;-3.40;73.90
69247;BME280;56358;56.328;43.992;2023-02-11T01:02:41;100459.19;;;-3.46;74.11
69247;BME280;56358;56.328;43.992;2023-02-11T01:04:42;100453.91;;;-3.43;73.91
69247;BME280;56358;56.328;43.992;2023-02-11T01:06:43;100438.31;;;-3.50;73.82
69247;BME280;56358;56.328;43.992;2023-02-11T01:08:43;100463.53;;;-3.45;73.95
69247;BME280;56358;56.328;43.992;2023-02-11T01:10:44;100378.78;;;-3.88;73.67
69247;BME280;56358;56.328;43.992;2023-02-11T01:12:45;100483.47;;;-3.36;73.77
69247;BME280;56358;56.328;43.992;2023-02-11T01:14:45;100478.22;;;-3.38;73.71
69247;BME280;56358;56.328;43.992;2023-02-11T01:16:46;100452.22;;;-3.47;73.73
69247;BME280;56358;56.328;43.992;2023-02-11T01:18:46;100457.25;;;-3.36;73.82
69247;BME280;56358;56.328;43.992;2023-02-11T01:20:47;100453.94;;;-3.46;73.67
69247;BME280;56358;56.328;43.992;2023-02-11T01:22:48;100472.97;;;-3.38;73.80
69247;BME280;56358;56.328;43.992;2023-02-11T01:24:48;100381.34;;;-3.83;73.45
69247;BME280;56358;56.328;43.992;2023-02-11T01:26:49;100464.22;;;-3.37;73.36
69247;BME280;56358;56.328;43.992;2023-02-11T01:28:49;100463.38;;;-3.37;73.56
69247;BME280;56358;56.328;43.992;2023-02-11T01:30:50;100465.19;;;-3.41;73.33
69247;BME280;56358;56.328;43.992;2023-02-11T01:32:51;100456.34;;;-3.35;73.19
69247;BME280;56358;56.328;43.992;2023-02-11T01:34:52;100452.06;;;-3.39;73.12
69247;BME280;56358;56.328;43.992;2023-02-11T01:36:57;100440.78;;;-3.44;72.95
69247;BME280;56358;56.328;43.992;2023-02-11T01:38:58;100452.28;;;-3.50;73.24
69247;BME280;56358;56.328;43.992;2023-02-11T01:41:02;100442.63;;;-3.48;73.29
69247;BME280;56358;56.328;43.992;2023-02-11T01:43:03;100453.03;;;-3.45;73.09
69247;BME280;56358;56.328;43.992;2023-02-11T01:47:42;100446.28;;;-3.57;73.43
69247;BME280;56358;56.328;43.992;2023-02-11T01:49:48;100471.31;;;-3.40;73.30
69247;BME280;56358;56.328;43.992;2023-02-11T01:52:00;100439.13;;;-3.47;73.48
69247;BME280;56358;56.328;43.992;2023-02-11T01:54:03;100424.34;;;-3.51;73.40
69247;BME280;56358;56.328;43.992;2023-02-11T01:56:24;100369.13;;;-3.84;73.15
69247;BME280;56358;56.328;43.992;2023-02-11T01:58:46;100445.88;;;-3.37;73.21
69247;BME280;56358;56.328;43.992;2023-02-11T02:00:48;100467.63;;;-3.31;73.23
69247;BME280;56358;56.328;43.992;2023-02-11T02:07:24;100443.09;;;-3.29;73.19
69247;BME280;56358;56.328;43.992;2023-02-11T02:09:28;100441.31;;;-3.27;73.23
69247;BME280;56358;56.328;43.992;2023-02-11T02:11:31;100447.31;;;-3.22;73.10
69247;BME280;56358;56.328;43.992;2023-02-11T02:13:33;100455.97;;;-3.18;72.84
69247;BME280;56358;56.328;43.992;2023-02-11T02:16:03;100455.91;;;-3.15;72.75
69247;BME280;56358;56.328;43.992;2023-02-11T02:18:22;100448.03;;;-3.15;72.81
69247;BME280;56358;56.328;43.992;2023-02-11T02:23:13;100454.06;;;-3.10;72.72
69247;BME280;56358;56.328;43.992;2023-02-11T02:37:20;100464.38;;;-3.02;72.49
69247;BME280;56358;56.328;43.992;2023-02-11T02:39:31;100463.56;;;-3.06;72.55
69247;BME280;56358;56.328;43.992;2023-02-11T02:41:34;100404.81;;;-3.36;72.46
69247;BME280;56358;56.328;43.992;2023-02-11T02:43:41;100467.78;;;-2.97;72.44
69247;BME280;56358;56.328;43.992;2023-02-11T02:45:43;100467.72;;;-2.95;72.42
69247;BME280;56358;56.328;43.992;2023-02-11T02:47:44;100474.72;;;-2.94;72.39
69247;BME280;56358;56.328;43.992;2023-02-11T02:49:44;100479.91;;;-2.93;72.34
69247;BME280;56358;56.328;43.992;2023-02-11T03:01:13;100467.69;;;-2.94;72.66
69247;BME280;56358;56.328;43.992;2023-02-11T03:05:34;100457.25;;;-2.95;72.31
69247;BME280;56358;56.328;43.992;2023-02-11T03:08:15;100462.59;;;-3.00;72.65
69247;BME280;56358;56.328;43.992;2023-02-11T03:12:26;100385.75;;;-3.43;72.82
69247;BME280;56358;56.328;43.992;2023-02-11T03:14:30;100453.84;;;-3.00;72.98
69247;BME280;56358;56.328;43.992;2023-02-11T03:16:32;100468.75;;;-3.01;72.96
69247;BME280;56358;56.328;43.992;2023-02-11T03:18:40;100308.00;;;-3.83;72.65
69247;BME280;56358;56.328;43.992;2023-02-11T03:20:44;100441.66;;;-3.03;72.80
69247;BME280;56358;56.328;43.992;2023-02-11T03:24:48;100436.22;;;-2.94;72.84
69247;BME280;56358;56.328;43.992;2023-02-11T03:26:51;100401.97;;;-3.25;72.67
69247;BME280;56358;56.328;43.992;2023-02-11T03:29:03;100443.06;;;-2.88;72.39
69247;BME280;56358;56.328;43.992;2023-02-11T03:33:34;100431.72;;;-2.89;72.56
69247;BME280;56358;56.328;43.992;2023-02-11T03:35:40;100450.13;;;-2.90;72.75
69247;BME280;56358;56.328;43.992;2023-02-11T03:37:47;100246.28;;;-3.98;72.51
69247;BME280;56358;56.328;43.992;2023-02-11T03:40:04;100292.81;;;-3.68;72.29
69247;BME280;56358;56.328;43.992;2023-02-11T03:42:08;100419.41;;;-2.85;72.35
69247;BME280;56358;56.328;43.992;2023-02-11T03:44:11;100430.84;;;-2.88;72.76
69247;BME280;56358;56.328;43.992;2023-02-11T03:46:16;100434.28;;;-2.86;72.58
69247;BME280;56358;56.328;43.992;2023-02-11T03:48:29;100428.97;;;-2.84;72.83
69247;BME280;56358;56.328;43.992;2023-02-11T03:50:32;100432.41;;;-2.80;72.71
69247;BME280;56358;56.328;43.992;2023-02-11T03:52:35;100437.66;;;-2.80;72.84
69247;BME280;56358;56.328;43.992;2023-02-11T03:54:38;100431.59;;;-2.84;72.60
69247;BME280;56358;56.328;43.992;2023-02-11T03:56:54;100373.84;;;-3.18;72.63
69247;BME280;56358;56.328;43.992;2023-02-11T03:58:55;100442.06;;;-2.81;72.84
69247;BME280;56358;56.328;43.992;2023-02-11T04:00:55;100438.66;;;-2.86;72.93
69247;BME280;56358;56.328;43.992;2023-02-11T04:02:56;100441.03;;;-2.75;72.36
69247;BME280;56358;56.328;43.992;2023-02-11T04:04:57;100438.50;;;-2.78;72.47
69247;BME280;56358;56.328;43.992;2023-02-11T04:06:57;100442.84;;;-2.79;72.56
69247;BME280;56358;56.328;43.992;2023-02-11T04:08:58;100427.13;;;-2.79;72.86
69247;BME280;56358;56.328;43.992;2023-02-11T04:10:58;100415.59;;;-3.09;73.08
69247;BME280;56358;56.328;43.992;2023-02-11T04:12:59;100428.03;;;-2.80;73.04
69247;BME280;56358;56.328;43.992;2023-02-11T04:14:59;100419.50;;;-2.90;73.33
69247;BME280;56358;56.328;43.992;2023-02-11T04:17:00;100435.88;;;-2.78;73.37
69247;BME280;56358;56.328;43.992;2023-02-11T04:19:01;100415.84;;;-2.82;73.49
69247;BME280;56358;56.328;43.992;2023-02-11T04:21:02;100451.56;;;-2.77;73.23
69247;BME280;56358;56.328;43.992;2023-02-11T04:23:02;100332.31;;;-3.37;73.29
69247;BME280;56358;56.328;43.992;2023-02-11T04:25:03;100429.66;;;-2.74;73.17
69247;BME280;56358;56.328;43.992;2023-02-11T04:27:04;100426.25;;;-2.79;73.31
69247;BME280;56358;56.328;43.992;2023-02-11T04:29:05;100392.50;;;-2.93;73.00
69247;BME280;56358;56.328;43.992;2023-02-11T04:31:05;100421.94;;;-2.82;73.02
69247;BME280;56358;56.328;43.992;2023-02-11T04:33:06;100414.88;;;-2.78;72.86
69247;BME280;56358;56.328;43.992;2023-02-11T04:35:07;100400.16;;;-2.86;72.96
69247;BME280;56358;56.328;43.992;2023-02-11T04:37:08;100403.63;;;-2.83;72.64
69247;BME280;56358;56.328;43.992;2023-02-11T04:39:08;100327.78;;;-3.30;72.75
69247;BME280;56358;56.328;43.992;2023-02-11T04:41:09;100406.13;;;-2.79;72.58
69247;BME280;56358;56.328;43.992;2023-02-11T04:43:10;100401.75;;;-2.78;72.62
69247;BME280;56358;56.328;43.992;2023-02-11T04:45:10;100426.84;;;-2.68;72.44
69247;BME280;56358;56.328;43.992;2023-02-11T04:47:11;100418.88;;;-2.63;72.43
69247;BME280;56358;56.328;43.992;2023-02-11T04:49:15;100423.16;;;-2.59;72.46
69247;BME280;56358;56.328;43.992;2023-02-11T04:51:17;100428.38;;;-2.58;72.32
69247;BME280;56358;56.328;43.992;2023-02-11T04:53:17;100408.53;;;-2.70;72.32
69247;BME280;56358;56.328;43.992;2023-02-11T04:55:18;100426.94;;;-2.71;72.13
69247;BME280;56358;56.328;43.992;2023-02-11T04:57:18;100433.63;;;-2.58;72.22
69247;BME280;56358;56.328;43.992;2023-02-11T04:59:19;100425.03;;;-2.64;72.22
69247;BME280;56358;56.328;43.992;2023-02-11T05:01:19;100435.31;;;-2.55;71.94
69247;BME280;56358;56.328;43.992;2023-02-11T05:03:20;100456.34;;;-2.57;71.82
69247;BME280;56358;56.328;43.992;2023-02-11T05:05:21;100434.41;;;-2.54;71.80
69247;BME280;56358;56.328;43.992;2023-02-11T05:07:21;100436.16;;;-2.55;71.59
69247;BME280;56358;56.328;43.992;2023-02-11T05:09:22;100437.03;;;-2.54;71.92
69247;BME280;56358;56.328;43.992;2023-02-11T05:11:24;100448.38;;;-2.54;71.73
69247;BME280;56358;56.328;43.992;2023-02-11T05:13:24;100428.38;;;-2.58;71.85
69247;BME280;56358;56.328;43.992;2023-02-11T05:15:25;100436.91;;;-2.49;71.77
69247;BME280;56358;56.328;43.992;2023-02-11T05:17:26;100435.16;;;-2.49;71.72
69247;BME280;56358;56.328;43.992;2023-02-11T05:19:27;100439.41;;;-2.43;71.41
69247;BME280;56358;56.328;43.992;2023-02-11T05:21:28;100420.41;;;-2.53;71.25
69247;BME280;56358;56.328;43.992;2023-02-11T05:23:30;100421.03;;;-2.43;71.23
69247;BME280;56358;56.328;43.992;2023-02-11T05:25:30;100429.84;;;-2.46;71.13
69247;BME280;56358;56.328;43.992;2023-02-11T05:27:31;100403.84;;;-2.57;71.30
69247;BME280;56358;56.328;43.992;2023-02-11T05:29:31;100418.41;;;-2.43;71.05
69247;BME280;56358;56.328;43.992;2023-02-11T05:31:32;100424.44;;;-2.40;71.14
69247;BME280;56358;56.328;43.992;2023-02-11T05:33:32;100337.16;;;-2.84;70.47
69247;BME280;56358;56.328;43.992;2023-02-11T05:35:33;100393.06;;;-2.46;70.40
69247;BME280;56358;56.328;43.992;2023-02-11T05:37:34;100413.72;;;-2.32;70.24
69247;BME280;56358;56.328;43.992;2023-02-11T05:39:35;100417.94;;;-2.25;70.19
69247;BME280;56358;56.328;43.992;2023-02-11T05:41:35;100431.13;;;-2.28;70.30
69247;BME280;56358;56.328;43.992;2023-02-11T05:43:37;100432.81;;;-2.25;70.09
69247;BME280;56358;56.328;43.992;2023-02-11T05:45:38;100423.22;;;-2.28;69.85
69247;BME280;56358;56.328;43.992;2023-02-11T05:47:38;100379.19;;;-2.51;69.76
69247;BME280;56358;56.328;43.992;2023-02-11T05:49:39;100424.13;;;-2.27;69.92
69247;BME280;56358;56.328;43.992;2023-02-11T05:51:39;100423.22;;;-2.26;69.92
69247;BME280;56358;56.328;43.992;2023-02-11T05:53:40;100409.63;;;-2.42;69.84
69247;BME280;56358;56.328;43.992;2023-02-11T05:55:40;100354.31;;;-2.71;69.88
69247;BME280;56358;56.328;43.992;2023-02-11T05:57:41;100431.06;;;-2.25;69.77
69247;BME280;56358;56.328;43.992;2023-02-11T05:59:42;100332.69;;;-2.80;69.82
69247;BME280;56358;56.328;43.992;2023-02-11T06:01:43;100428.44;;;-2.25;69.80
69247;BME280;56358;56.328;43.992;2023-02-11T06:03:43;100421.44;;;-2.26;69.51
69247;BME280;56358;56.328;43.992;2023-02-11T06:05:44;100429.19;;;-2.20;69.15
69247;BME280;56358;56.328;43.992;2023-02-11T06:07:45;100422.09;;;-2.17;69.42
69247;BME280;56358;56.328;43.992;2023-02-11T06:09:45;100426.50;;;-2.18;69.75
69247;BME280;56358;56.328;43.992;2023-02-11T06:11:46;100350.69;;;-2.65;69.54
69247;BME280;56358;56.328;43.992;2023-02-11T06:13:47;100386.75;;;-2.37;69.57
69247;BME280;56358;56.328;43.992;2023-02-11T06:16:00;100445.47;;;-2.07;69.64
69247;BME280;56358;56.328;43.992;2023-02-11T06:18:01;100432.28;;;-2.04;69.38
69247;BME280;56358;56.328;43.992;2023-02-11T06:20:05;100429.47;;;-1.97;69.04
69247;BME280;56358;56.328;43.992;2023-02-11T06:22:06;100406.88;;;-2.05;68.98
69247;BME280;56358;56.328;43.992;2023-02-11T06:24:06;100405.06;;;-2.03;68.42
69247;BME280;56358;56.328;43.992;2023-02-11T06:26:18;100426.47;;;-1.83;68.54
69247;BME280;56358;56.328;43.992;2023-02-11T09:21:24;100443.13;;;-1.53;64.64
69247;BME280;56358;56.328;43.992;2023-02-11T09:23:25;100470.50;;;-1.29;63.40
69247;BME280;56358;56.328;43.992;2023-02-11T09:25:25;100471.81;;;-1.14;63.25
69247;BME280;56358;56.328;43.992;2023-02-11T09:27:26;100482.25;;;-1.11;62.99
69247;BME280;56358;56.328;43.992;2023-02-11T09:29:26;100479.44;;;-1.05;62.92
69247;BME280;56358;56.328;43.992;2023-02-11T09:31:29;100483.63;;;-0.97;62.91
69247;BME280;56358;56.328;43.992;2023-02-11T09:33:30;100453.88;;;-1.01;62.87
69247;BME280;56358;56.328;43.992;2023-02-11T09:35:32;100469.25;;;-0.87;62.95
69247;BME280;56358;56.328;43.992;2023-02-11T09:37:33;100471.69;;;-0.81;62.65
69247;BME280;56358;56.328;43.992;2023-02-11T09:39:34;100446.53;;;-0.90;62.27
69247;BME280;56358;56.328;43.992;2023-02-11T09:41:45;100457.47;;;-0.75;61.63
69247;BME280;56358;56.328;43.992;2023-02-11T09:43:55;100485.88;;;-0.57;61.68
69247;BME280;56358;56.328;43.992;2023-02-11T09:45:58;100488.16;;;-0.46;61.21
69247;BME280;56358;56.328;43.992;2023-02-11T09:48:09;100479.25;;;-0.42;60.95
69247;BME280;56358;56.328;43.992;2023-02-11T09:50:16;100457.84;;;-0.59;60.79
69247;BME280;56358;56.328;43.992;2023-02-11T09:54:38;100494.50;;;-0.52;60.45
69247;BME280;56358;56.328;43.992;2023-02-11T09:56:42;100484.00;;;-0.53;60.79
69247;BME280;56358;56.328;43.992;2023-02-11T09:58:43;100496.00;;;-0.44;60.82
69247;BME280;56358;56.328;43.992;2023-02-11T10:00:50;100453.72;;;-0.66;60.54
69247;BME280;56358;56.328;43.992;2023-02-11T10:08:19;100490.13;;;-0.26;59.41
69247;BME280;56358;56.328;43.992;2023-02-11T10:24:09;100490.72;;;-0.44;58.40
69247;BME280;56358;56.328;43.992;2023-02-11T10:26:14;100495.03;;;-0.42;58.94
69247;BME280;56358;56.328;43.992;2023-02-11T10:28:18;100480.78;;;-0.35;58.92
69247;BME280;56358;56.328;43.992;2023-02-11T10:30:28;100482.88;;;-0.46;58.14
69247;BME280;56358;56.328;43.992;2023-02-11T10:32:57;100476.06;;;-0.52;58.58
69247;BME280;56358;56.328;43.992;2023-02-11T10:35:02;100475.19;;;-0.52;59.00
69247;BME280;56358;56.328;43.992;2023-02-11T10:37:04;100409.78;;;-0.93;59.09
69247;BME280;56358;56.328;43.992;2023-02-11T10:39:13;100481.22;;;-0.48;58.86
69247;BME280;56358;56.328;43.992;2023-02-11T10:41:21;100473.53;;;-0.55;58.75
69247;BME280;56358;56.328;43.992;2023-02-11T10:43:26;100375.38;;;-1.15;58.90
69247;BME280;56358;56.328;43.992;2023-02-11T10:45:52;100477.13;;;-0.57;59.20
69247;BME280;56358;56.328;43.992;2023-02-11T10:47:54;100477.91;;;-0.55;59.04
69247;BME280;56358;56.328;43.992;2023-02-11T10:49:54;100486.69;;;-0.55;59.56
69247;BME280;56358;56.328;43.992;2023-02-11T10:52:25;100474.38;;;-0.54;59.13
69247;BME280;56358;56.328;43.992;2023-02-11T10:54:26;100479.41;;;-0.46;59.45
69247;BME280;56358;56.328;43.992;2023-02-11T10:56:28;100491.63;;;-0.44;59.22
69247;BME280;56358;56.328;43.992;2023-02-11T10:58:36;100465.16;;;-0.41;58.69
69247;BME280;56358;56.328;43.992;2023-02-11T11:00:41;100455.53;;;-0.42;58.79
69247;BME280;56358;56.328;43.992;2023-02-11T11:02:43;100461.06;;;-0.23;58.85
69247;BME280;56358;56.328;43.992;2023-02-11T11:04:46;100428.63;;;-0.25;58.03
69247;BME280;56358;56.328;43.992;2023-02-11T11:06:47;100459.44;;;0.00;57.61
69247;BME280;56358;56.328;43.992;2023-02-11T11:08:50;100415.94;;;-0.13;57.35
69247;BME280;56358;56.328;43.992;2023-02-11T11:11:04;100457.88;;;0.20;56.23
69247;BME280;56358;56.328;43.992;2023-02-11T11:13:07;100462.09;;;0.24;56.31
69247;BME280;56358;56.328;43.992;2023-02-11T11:15:25;100461.84;;;0.31;56.35
69247;BME280;56358;56.328;43.992;2023-02-11T11:17:26;100428.75;;;0.23;56.31
69247;BME280;56358;56.328;43.992;2023-02-11T11:19:30;100444.09;;;0.37;55.75
69247;BME280;56358;56.328;43.992;2023-02-11T11:23:47;100451.31;;;0.55;55.18
69247;BME280;56358;56.328;43.992;2023-02-11T11:26:04;100439.09;;;0.53;54.95
69247;BME280;56358;56.328;43.992;2023-02-11T11:28:04;100452.69;;;0.65;54.93
69247;BME280;56358;56.328;43.992;2023-02-11T11:30:14;100454.69;;;0.59;54.45
69247;BME280;56358;56.328;43.992;2023-02-11T11:32:29;100469.88;;;0.52;54.68
69247;BME280;56358;56.328;43.992;2023-02-11T11:34:40;100456.94;;;0.46;54.79
69247;BME280;56358;56.328;43.992;2023-02-11T11:36:42;100450.16;;;0.39;54.88
69247;BME280;56358;56.328;43.992;2023-02-11T11:38:49;100455.88;;;0.26;54.77
69247;BME280;56358;56.328;43.992;2023-02-11T11:43:20;100453.34;;;0.23;55.00
69247;BME280;56358;56.328;43.992;2023-02-11T11:45:24;100429.34;;;0.06;54.55
69247;BME280;56358;56.328;43.992;2023-02-11T11:47:32;100454.91;;;0.29;54.57
69247;BME280;56358;56.328;43.992;2023-02-11T11:49:43;100422.50;;;0.25;54.21
69247;BME280;56358;56.328;43.992;2023-02-11T11:51:53;100449.47;;;0.57;53.67
69247;BME280;56358;56.328;43.992;2023-02-11T11:54:16;100458.81;;;0.90;53.00
69247;BME280;56358;56.328;43.992;2023-02-11T11:56:21;100461.69;;;1.07;52.46
69247;BME280;56358;56.328;43.992;2023-02-11T11:58:22;100450.09;;;1.11;51.96
69247;BME280;56358;56.328;43.992;2023-02-11T12:11:22;100453.78;;;0.11;53.09
69247;BME280;56358;56.328;43.992;2023-02-11T12:20:50;100452.50;;;-0.29;54.58
69247;BME280;56358;56.328;43.992;2023-02-11T12:25:26;100441.28;;;-0.35;54.76
69247;BME280;56358;56.328;43.992;2023-02-11T12:27:46;100454.78;;;-0.45;54.89
69247;BME280;56358;56.328;43.992;2023-02-11T12:32:30;100452.59;;;-0.59;55.87
69247;BME280;56358;56.328;43.992;2023-02-11T12:39:02;100456.28;;;-0.65;55.86
69247;BME280;56358;56.328;43.992;2023-02-11T12:43:54;100454.09;;;-0.79;55.68
69247;BME280;56358;56.328;43.992;2023-02-11T12:48:32;100456.91;;;-0.85;55.53
69247;BME280;56358;56.328;43.992;2023-02-11T12:50:56;100433.84;;;-1.05;55.70
69247;BME280;56358;56.328;43.992;2023-02-11T12:55:25;100454.06;;;-1.07;55.82
69247;BME280;56358;56.328;43.992;2023-02-11T12:57:30;100460.31;;;-1.10;56.10
69247;BME280;56358;56.328;43.992;2023-02-11T13:01:44;100453.69;;;-1.23;56.44
69247;BME280;56358;56.328;43.992;2023-02-11T13:03:49;100458.84;;;-1.20;56.20
69247;BME280;56358;56.328;43.992;2023-02-11T13:06:02;100457.16;;;-1.23;56.28
69247;BME280;56358;56.328;43.992;2023-02-11T13:08:11;100455.53;;;-1.27;56.16
69247;BME280;56358;56.328;43.992;2023-02-11T13:10:51;100456.59;;;-1.34;56.43
69247;BME280;56358;56.328;43.992;2023-02-11T13:12:54;100450.50;;;-1.35;56.45
69247;BME280;56358;56.328;43.992;2023-02-11T13:15:14;100442.88;;;-1.44;56.62
69247;BME280;56358;56.328;43.992;2023-02-11T13:17:29;100443.78;;;-1.45;56.72
69247;BME280;56358;56.328;43.992;2023-02-11T13:19:43;100425.78;;;-1.59;56.86
69247;BME280;56358;56.328;43.992;2023-02-11T13:26:17;100447.50;;;-1.52;56.66
69247;BME280;56358;56.328;43.992;2023-02-11T13:29:13;100447.53;;;-1.54;56.88
69247;BME280;56358;56.328;43.992;2023-02-11T13:30:52;100434.56;;;-1.60;56.87
69247;BME280;56358;56.328;43.992;2023-02-11T13:33:04;100442.53;;;-1.63;57.08
69247;BME280;56358;56.328;43.992;2023-02-11T13:37:38;100435.69;;;-1.69;57.16
69247;BME280;56358;56.328;43.992;2023-02-11T13:39:39;100427.91;;;-1.73;57.26
69247;BME280;56358;56.328;43.992;2023-02-11T13:41:40;100402.19;;;-1.93;57.52
69247;BME280;56358;56.328;43.992;2023-02-11T13:43:41;100412.50;;;-1.86;57.56
69247;BME280;56358;56.328;43.992;2023-02-11T13:45:46;100417.75;;;-1.86;57.62
69247;BME280;56358;56.328;43.992;2023-02-11T13:47:47;100417.84;;;-1.89;57.75
69247;BME280;56358;56.328;43.992;2023-02-11T13:49:50;100414.28;;;-1.88;57.79
69247;BME280;56358;56.328;43.992;2023-02-11T13:51:53;100409.22;;;-1.94;57.78
69247;BME280;56358;56.328;43.992;2023-02-11T13:53:56;100415.28;;;-1.90;57.41
69247;BME280;56358;56.328;43.992;2023-02-11T13:56:06;100403.31;;;-2.02;57.53
69247;BME280;56358;56.328;43.992;2023-02-11T14:02:35;100419.81;;;-1.97;57.65
69247;BME280;56358;56.328;43.992;2023-02-11T14:07:27;100412.91;;;-2.01;57.66
69247;BME280;56358;56.328;43.992;2023-02-11T14:09:46;100409.53;;;-2.05;57.31
69247;BME280;56358;56.328;43.992;2023-02-11T14:11:51;100375.03;;;-2.25;57.50
69247;BME280;56358;56.328;43.992;2023-02-11T14:16:19;100383.59;;;-2.17;57.54
69247;BME280;56358;56.328;43.992;2023-02-11T14:20:41;100388.75;;;-2.14;57.79
69247;BME280;56358;56.328;43.992;2023-02-11T14:22:47;100388.84;;;-2.17;57.57
69247;BME280;56358;56.328;43.992;2023-02-11T14:24:59;100379.19;;;-2.16;57.34
69247;BME280;56358;56.328;43.992;2023-02-11T14:27:28;100389.66;;;-2.15;57.51
69247;BME280;56358;56.328;43.992;2023-02-11T14:29:57;100384.44;;;-2.16;57.63
69247;BME280;56358;56.328;43.992;2023-02-11T14:41:10;100367.84;;;-2.19;57.53
69247;BME280;56358;56.328;43.992;2023-02-11T14:43:18;100375.56;;;-2.12;57.50
69247;BME280;56358;56.328;43.992;2023-02-11T14:45:24;100359.16;;;-2.21;57.64
69247;BME280;56358;56.328;43.992;2023-02-11T14:47:50;100369.53;;;-2.16;57.41
69247;BME280;56358;56.328;43.992;2023-02-11T14:49:53;100372.91;;;-2.11;57.64
69247;BME280;56358;56.328;43.992;2023-02-11T14:52:00;100369.47;;;-2.13;57.44
69247;BME280;56358;56.328;43.992;2023-02-11T14:54:23;100370.22;;;-2.09;57.21
69247;BME280;56358;56.328;43.992;2023-02-11T14:56:28;100366.78;;;-2.11;56.96
69247;BME280;56358;56.328;43.992;2023-02-11T14:58:31;100332.28;;;-2.30;56.43
69247;BME280;56358;56.328;43.992;2023-02-11T15:00:32;100332.00;;;-2.21;56.18
69247;BME280;56358;56.328;43.992;2023-02-11T15:02:35;100334.72;;;-2.24;55.74
69247;BME280;56358;56.328;43.992;2023-02-11T15:04:36;100363.88;;;-2.00;55.56
69247;BME280;56358;56.328;43.992;2023-02-11T15:06:41;100322.19;;;-2.14;55.58
69247;BME280;56358;56.328;43.992;2023-02-11T15:09:22;100359.25;;;-1.92;55.29
69247;BME280;56358;56.328;43.992;2023-02-11T15:11:17;100359.25;;;-1.92;55.08
69247;BME280;56358;56.328;43.992;2023-02-11T15:13:21;100358.34;;;-1.91;54.79
69247;BME280;56358;56.328;43.992;2023-02-11T15:15:27;100363.56;;;-1.90;54.93
69247;BME280;56358;56.328;43.992;2023-02-11T15:17:30;100361.72;;;-1.86;54.77
69247;BME280;56358;56.328;43.992;2023-02-11T15:19:33;100358.25;;;-1.88;54.68
69247;BME280;56358;56.328;43.992;2023-02-11T15:21:35;100350.31;;;-1.87;54.39
69247;BME280;56358;56.328;43.992;2023-02-11T15:23:36;100347.69;;;-1.87;54.48
69247;BME280;56358;56.328;43.992;2023-02-11T15:25:44;100345.13;;;-1.88;54.75
69247;BME280;56358;56.328;43.992;2023-02-11T15:27:54;100320.31;;;-2.09;54.25
69247;BME280;56358;56.328;43.992;2023-02-11T15:29:56;100345.97;;;-1.88;54.49
69247;BME280;56358;56.328;43.992;2023-02-11T15:32:04;100346.75;;;-1.84;54.35
69247;BME280;56358;56.328;43.992;2023-02-11T15:34:07;100353.84;;;-1.86;53.92
69247;BME280;56358;56.328;43.992;2023-02-11T15:36:10;100340.69;;;-1.86;54.11
69247;BME280;56358;56.328;43.992;2023-02-11T15:38:12;100314.09;;;-2.07;53.90
69247;BME280;56358;56.328;43.992;2023-02-11T15:40:30;100353.84;;;-1.86;53.81
69247;BME280;56358;56.328;43.992;2023-02-11T15:42:32;100326.78;;;-1.90;53.72
69247;BME280;56358;56.328;43.992;2023-02-11T15:44:32;100325.03;;;-1.91;53.95
69247;BME280;56358;56.328;43.992;2023-02-11T15:46:37;100330.19;;;-1.88;54.36
69247;BME280;56358;56.328;43.992;2023-02-11T15:48:44;100318.88;;;-1.90;54.71